Time;durP1;ratioP1;P1;durP2;ratioP2;P2;SDS_P1;SDS_P2;PMS_P1;PMS_P2;Temp;Humidity;BMP_temperature;BMP_pressure;BME280_temperature;BME280_humidity;BME280_pressure;Samples;Min_cycle;Max_cycle;Signal;HPM_P1;HPM_P2
2023/10/29 00:00:09;;;;;;;2.03;1.35;;;;;;;12.99;88.40;99047.09;5028765;28;20040;-61
2023/10/29 00:02:37;;;;;;;2.55;1.25;;;;;;;13.00;88.83;99043.16;5056922;28;20033;-62
2023/10/29 00:05:03;;;;;;;3.15;1.20;;;;;;;13.01;88.55;99038.44;5028681;28;20435;-62
2023/10/29 00:07:29;;;;;;;2.30;1.27;;;;;;;13.02;88.90;99038.13;5028220;28;20029;-62
2023/10/29 00:09:54;;;;;;;2.38;1.10;;;;;;;13.01;89.29;99028.13;5029100;28;20034;-62
2023/10/29 00:12:20;;;;;;;6.05;1.38;;;;;;;13.02;89.29;99024.19;5047518;28;20064;-62
2023/10/29 00:14:46;;;;;;;3.55;1.30;;;;;;;13.05;89.05;99022.75;5049183;28;20028;-62
2023/10/29 00:17:11;;;;;;;3.35;1.00;;;;;;;13.05;89.27;99014.41;5048980;28;20025;-62
2023/10/29 00:19:36;;;;;;;3.90;1.35;;;;;;;13.06;89.49;99010.47;5040852;28;20067;-62
2023/10/29 00:22:01;;;;;;;3.05;1.20;;;;;;;13.05;89.26;98989.34;5029933;28;20026;-62
2023/10/29 00:24:27;;;;;;;2.78;1.10;;;;;;;13.07;89.21;98972.28;5030626;28;20045;-62
2023/10/29 00:26:52;;;;;;;5.57;1.30;;;;;;;13.07;88.97;98956.41;5027422;28;20452;-62
2023/10/29 00:29:17;;;;;;;2.55;1.10;;;;;;;13.08;89.42;98954.44;5041300;28;20447;-64
2023/10/29 00:31:43;;;;;;;1.95;1.20;;;;;;;13.09;88.98;98951.34;5044361;28;20037;-64
2023/10/29 00:34:08;;;;;;;3.40;1.05;;;;;;;13.09;88.84;98959.72;5037065;28;20480;-63
2023/10/29 00:36:33;;;;;;;2.92;1.40;;;;;;;13.09;88.67;98953.31;5044841;28;20562;-64
2023/10/29 00:38:59;;;;;;;2.05;1.25;;;;;;;13.10;88.66;98935.47;5048696;28;20028;-64
2023/10/29 00:41:25;;;;;;;2.40;1.02;;;;;;;13.12;88.32;98969.38;5044950;28;20036;-64
2023/10/29 00:43:51;;;;;;;1.65;1.10;;;;;;;13.13;88.77;98993.31;5043154;28;20016;-64
2023/10/29 00:46:16;;;;;;;3.53;1.20;;;;;;;13.14;87.81;98961.53;5052925;28;20149;-63
2023/10/29 00:48:42;;;;;;;2.90;1.10;;;;;;;13.16;87.48;98967.59;5049489;28;20116;-64
2023/10/29 00:51:07;;;;;;;2.13;1.15;;;;;;;13.16;87.42;98967.59;5048350;28;20059;-64
2023/10/29 00:53:33;;;;;;;4.05;1.17;;;;;;;13.18;87.04;98970.91;5053049;28;20049;-64
2023/10/29 00:55:59;;;;;;;2.70;1.00;;;;;;;13.20;87.20;98974.19;5031412;28;20036;-64
2023/10/29 00:58:25;;;;;;;2.22;1.33;;;;;;;13.23;86.52;98959.66;5037345;28;20025;-64
2023/10/29 01:00:51;;;;;;;2.85;1.08;;;;;;;13.23;86.80;98957.69;5049860;28;20024;-64
2023/10/29 01:03:18;;;;;;;2.60;1.30;;;;;;;13.25;86.71;98949.03;5050653;28;20461;-64
2023/10/29 01:05:44;;;;;;;2.38;1.40;;;;;;;13.29;86.36;98961.19;5058742;28;20464;-64
2023/10/29 01:08:10;;;;;;;2.88;1.08;;;;;;;13.30;86.19;98950.88;5050282;28;20037;-64
2023/10/29 01:10:36;;;;;;;1.75;1.10;;;;;;;13.31;86.58;98953.31;5033910;28;20053;-63
2023/10/29 01:13:04;;;;;;;2.47;1.00;;;;;;;13.33;85.84;98939.09;5029862;28;20076;-63
2023/10/29 01:15:30;;;;;;;3.45;1.05;;;;;;;13.33;86.03;98939.09;5036296;28;20069;-64
2023/10/29 01:17:55;;;;;;;2.22;1.00;;;;;;;13.34;86.13;98926.81;5030294;28;20113;-64
2023/10/29 01:20:20;;;;;;;3.70;1.00;;;;;;;13.34;85.90;98912.88;5030767;28;20033;-64
2023/10/29 01:22:46;;;;;;;2.90;1.10;;;;;;;13.34;86.32;98921.22;5037480;28;20477;-64
2023/10/29 01:25:12;;;;;;;1.75;1.13;;;;;;;13.34;86.03;98927.63;5035482;28;20407;-64
2023/10/29 01:27:37;;;;;;;2.05;0.88;;;;;;;13.34;85.45;98941.56;5037713;28;20072;-64
2023/10/29 01:30:05;;;;;;;1.20;0.90;;;;;;;13.34;85.97;98932.38;5041563;28;20477;-63
2023/10/29 01:32:30;;;;;;;2.30;0.80;;;;;;;13.33;85.77;98925.16;5031219;28;20029;-63
2023/10/29 01:34:56;;;;;;;2.35;1.08;;;;;;;13.33;85.29;98923.19;5031004;28;20025;-64
2023/10/29 01:37:21;;;;;;;3.70;1.20;;;;;;;13.33;84.83;98916.81;5035333;28;20035;-64
2023/10/29 01:39:47;;;;;;;4.28;1.20;;;;;;;13.33;84.77;98909.25;5039865;28;20113;-64
2023/10/29 01:42:12;;;;;;;2.10;1.10;;;;;;;13.34;85.20;98904.50;5048172;28;20032;-64
2023/10/29 01:44:37;;;;;;;2.03;1.00;;;;;;;13.33;84.86;98895.34;5046135;28;20041;-64
2023/10/29 01:47:03;;;;;;;2.22;1.20;;;;;;;13.34;84.79;98891.41;5050582;28;20032;-63
2023/10/29 01:49:28;;;;;;;2.55;0.80;;;;;;;13.30;84.75;98898.75;5050083;28;20029;-64
2023/10/29 01:51:54;;;;;;;2.30;1.02;;;;;;;13.30;84.88;98890.38;5034923;28;20044;-64
2023/10/29 01:54:19;;;;;;;2.35;1.00;;;;;;;13.29;84.74;98891.53;5042225;28;20037;-63
2023/10/29 01:56:44;;;;;;;3.83;1.00;;;;;;;13.30;84.77;98895.97;5035146;28;20083;-63
2023/10/29 01:59:13;;;;;;;1.55;0.98;;;;;;;13.27;85.12;98893.81;5030748;28;20029;-64
2023/10/29 02:01:39;;;;;;;2.72;0.98;;;;;;;13.27;84.70;98907.75;5030904;28;20128;-63
2023/10/29 02:04:07;;;;;;;1.75;1.30;;;;;;;13.29;85.04;98910.22;5029452;28;20487;-64
2023/10/29 02:06:39;;;;;;;2.92;1.00;;;;;;;13.29;84.82;98905.47;5030694;28;20037;-64
2023/10/29 02:09:08;;;;;;;3.60;0.90;;;;;;;13.28;85.26;98912.16;5057320;28;20032;-64
2023/10/29 02:11:37;;;;;;;1.65;1.00;;;;;;;13.29;85.60;98911.03;5073616;28;20484;-64
2023/10/29 02:14:03;;;;;;;2.97;1.33;;;;;;;13.29;85.36;98916.63;5056528;28;20066;-64
2023/10/29 02:16:28;;;;;;;4.07;1.10;;;;;;;13.30;85.12;98921.03;5037436;28;20041;-63
2023/10/29 02:18:54;;;;;;;4.38;1.40;;;;;;;13.30;84.98;98900.72;5034079;28;20227;-64
2023/10/29 02:21:22;;;;;;;1.40;1.08;;;;;;;13.30;85.08;98920.22;5034742;28;20041;-64
2023/10/29 02:23:47;;;;;;;2.70;1.02;;;;;;;13.30;85.23;98901.53;5034317;28;20045;-63
2023/10/29 02:26:13;;;;;;;2.03;1.27;;;;;;;13.30;84.86;98904.31;5034159;28;20061;-64
2023/10/29 02:28:41;;;;;;;1.50;0.95;;;;;;;13.27;84.91;98904.94;5050371;28;20094;-63
2023/10/29 02:31:06;;;;;;;3.50;1.25;;;;;;;13.26;85.23;98906.09;5045590;28;20060;-63
2023/10/29 02:33:32;;;;;;;3.95;1.13;;;;;;;13.24;84.82;98911.16;5037821;28;20481;-63
2023/10/29 02:35:57;;;;;;;3.05;1.00;;;;;;;13.25;85.24;98908.06;5034216;28;20025;-63
2023/10/29 02:38:25;;;;;;;2.60;1.02;;;;;;;13.22;85.33;98917.03;5041768;28;20329;-63
2023/10/29 02:40:51;;;;;;;1.75;1.08;;;;;;;13.22;84.95;98908.66;5053483;28;20033;-63
2023/10/29 02:43:16;;;;;;;4.18;1.25;;;;;;;13.24;84.78;98905.59;5048662;28;20491;-63
2023/10/29 02:45:42;;;;;;;2.90;1.10;;;;;;;13.26;84.37;98897.75;5053496;28;20492;-64
2023/10/29 02:48:07;;;;;;;2.45;1.23;;;;;;;13.26;84.05;98894.97;5051910;28;20457;-64
2023/10/29 02:50:33;;;;;;;1.70;1.00;;;;;;;13.26;83.85;98898.56;5041413;28;20405;-64
2023/10/29 02:52:58;;;;;;;2.50;1.02;;;;;;;13.26;84.27;98893.00;5050913;28;20033;-63
2023/10/29 02:55:23;;;;;;;2.58;1.08;;;;;;;13.29;83.82;98902.69;5071068;28;20027;-64
2023/10/29 02:57:48;;;;;;;2.75;1.20;;;;;;;13.30;83.76;98909.06;5048140;28;20231;-64
2023/10/29 03:00:14;;;;;;;2.00;0.90;;;;;;;13.31;83.70;98897.59;5035433;28;20022;-64
2023/10/29 03:02:39;;;;;;;2.53;0.98;;;;;;;13.32;83.08;98899.22;5033589;28;20035;-63
2023/10/29 03:05:06;;;;;;;1.88;0.80;;;;;;;13.34;83.08;98905.31;5033608;28;20026;-64
2023/10/29 03:07:31;;;;;;;1.98;1.05;;;;;;;13.35;83.03;98893.03;5044061;28;20036;-64
2023/10/29 03:09:56;;;;;;;3.65;0.95;;;;;;;13.38;82.45;98892.41;5039278;28;20036;-64
2023/10/29 03:12:22;;;;;;;3.55;0.90;;;;;;;13.39;81.94;98902.41;5042221;28;20495;-64
2023/10/29 03:14:47;;;;;;;1.88;0.90;;;;;;;13.41;81.94;98897.34;5032834;28;20472;-64
2023/10/29 03:17:12;;;;;;;0.85;0.80;;;;;;;13.43;82.06;98892.25;5033329;28;20099;-64
2023/10/29 03:19:38;;;;;;;1.85;0.88;;;;;;;13.44;81.68;98896.72;5033293;28;20035;-64
2023/10/29 03:22:06;;;;;;;1.98;0.90;;;;;;;13.45;82.13;98905.88;5050467;28;20032;-64
2023/10/29 03:24:32;;;;;;;2.08;0.85;;;;;;;13.47;81.40;98898.84;5044607;28;20100;-64
2023/10/29 03:26:57;;;;;;;2.45;0.82;;;;;;;13.48;81.16;98905.25;5047213;28;20485;-63
2023/10/29 03:29:22;;;;;;;1.23;0.63;;;;;;;13.50;81.71;98916.88;5042218;28;20021;-65
2023/10/29 03:31:47;;;;;;;3.30;1.10;;;;;;;13.50;81.45;98909.34;5033556;28;20036;-64
2023/10/29 03:34:13;;;;;;;1.77;0.80;;;;;;;13.50;81.71;98916.88;5073051;28;20043;-63
2023/10/29 03:36:38;;;;;;;3.70;1.00;;;;;;;13.50;82.00;98920.50;5068951;28;20029;-64
2023/10/29 03:39:05;;;;;;;2.55;1.02;;;;;;;13.51;82.13;98912.94;5033514;28;20025;-64
2023/10/29 03:41:30;;;;;;;1.77;0.75;;;;;;;13.50;82.68;98922.47;5044744;28;20086;-64
2023/10/29 03:43:56;;;;;;;1.75;0.85;;;;;;;13.48;83.62;98914.44;5049602;28;20044;-63
2023/10/29 03:46:22;;;;;;;2.30;0.90;;;;;;;13.47;82.80;98918.34;5041806;28;20032;-64
2023/10/29 03:48:47;;;;;;;1.98;1.00;;;;;;;13.44;83.09;98902.28;5051719;28;20112;-64
2023/10/29 03:51:14;;;;;;;2.30;0.85;;;;;;;13.44;82.57;98905.06;5050668;28;20068;-64
2023/10/29 03:53:40;;;;;;;2.15;0.70;;;;;;;13.44;82.57;98899.50;5052045;28;20025;-64
2023/10/29 03:56:05;;;;;;;1.60;0.90;;;;;;;13.43;81.85;98905.38;5043815;28;20491;-64
2023/10/29 03:58:31;;;;;;;0.95;0.82;;;;;;;13.43;81.88;98906.19;5032610;28;20405;-64
2023/10/29 04:00:56;;;;;;;2.90;0.98;;;;;;;13.43;82.02;98908.16;5032718;28;20030;-64
2023/10/29 04:03:22;;;;;;;1.70;0.90;;;;;;;13.44;81.85;98907.00;5047502;28;20072;-64
2023/10/29 04:05:47;;;;;;;2.20;0.80;;;;;;;13.43;81.56;98895.03;5041130;28;20033;-64
2023/10/29 04:08:13;;;;;;;2.35;0.90;;;;;;;13.43;81.35;98906.19;5032609;28;20103;-64
2023/10/29 04:10:38;;;;;;;1.60;0.80;;;;;;;13.42;81.72;98912.91;5037285;28;20354;-64
2023/10/29 04:13:03;;;;;;;1.77;0.80;;;;;;;13.42;81.67;98904.56;5041973;28;20044;-64
2023/10/29 04:15:29;;;;;;;2.30;0.80;;;;;;;13.43;81.46;98906.19;5032361;28;20064;-64
2023/10/29 04:17:54;;;;;;;2.97;0.82;;;;;;;13.44;81.69;98915.38;5062933;28;20527;-64
2023/10/29 04:20:19;;;;;;;1.55;0.70;;;;;;;13.45;81.20;98917.84;5071935;28;20070;-64
2023/10/29 04:22:45;;;;;;;4.18;1.25;;;;;;;13.45;81.14;98926.22;5051496;28;20029;-64
2023/10/29 04:25:10;;;;;;;2.80;1.05;;;;;;;13.46;81.04;98927.03;5030937;28;20037;-64
2023/10/29 04:27:35;;;;;;;2.15;0.90;;;;;;;13.48;81.43;98938.69;5042853;28;20036;-64
2023/10/29 04:30:01;;;;;;;3.67;1.08;;;;;;;13.48;81.37;98935.91;5031406;28;20370;-63
2023/10/29 04:32:26;;;;;;;2.72;0.85;;;;;;;13.49;81.08;98930.00;5039590;28;20127;-64
2023/10/29 04:34:51;;;;;;;1.90;0.90;;;;;;;13.48;81.60;98921.97;5035651;28;20025;-64
2023/10/29 04:37:17;;;;;;;2.13;0.93;;;;;;;13.46;81.66;98904.75;5031915;28;20048;-63
2023/10/29 04:39:44;;;;;;;1.50;1.15;;;;;;;13.46;81.54;98922.28;5050023;28;20029;-64
2023/10/29 04:42:09;;;;;;;4.32;1.10;;;;;;;13.46;81.32;98930.63;5047728;28;20029;-63
2023/10/29 04:44:34;;;;;;;2.55;1.00;;;;;;;13.48;81.69;98928.38;5051712;28;20477;-64
2023/10/29 04:47:02;;;;;;;2.58;1.02;;;;;;;13.47;80.94;98918.34;5060685;28;20024;-64
2023/10/29 04:49:27;;;;;;;3.28;1.13;;;;;;;13.48;80.86;98919.19;5041545;28;20025;-63
2023/10/29 04:51:53;;;;;;;3.63;1.13;;;;;;;13.48;80.80;98930.34;5041239;28;20020;-64
2023/10/29 04:54:18;;;;;;;2.90;1.15;;;;;;;13.49;80.39;98926.41;5050596;28;20083;-64
2023/10/29 04:56:43;;;;;;;3.40;1.02;;;;;;;13.48;80.20;98925.59;5051648;28;20108;-64
2023/10/29 04:59:08;;;;;;;3.38;1.33;;;;;;;13.47;80.27;98929.50;5050153;28;20029;-63
2023/10/29 05:01:34;;;;;;;3.00;1.20;;;;;;;13.48;80.30;98930.34;5050010;28;20040;-63
2023/10/29 05:03:59;;;;;;;5.30;1.30;;;;;;;13.46;80.74;98933.44;5049788;28;20408;-64
2023/10/29 05:06:24;;;;;;;3.40;0.88;;;;;;;13.47;80.68;98940.63;5050655;28;20040;-64
2023/10/29 05:08:50;;;;;;;5.38;1.20;;;;;;;13.48;81.05;98936.72;5037754;28;20103;-64
2023/10/29 05:11:18;;;;;;;4.90;1.20;;;;;;;13.46;81.14;98944.56;5038881;28;20609;-64
2023/10/29 05:13:43;;;;;;;3.78;1.00;;;;;;;13.46;81.40;98949.31;5030694;28;20803;-64
2023/10/29 05:16:09;;;;;;;3.55;1.13;;;;;;;13.46;81.80;98964.09;5036761;28;20071;-64
2023/10/29 05:18:35;;;;;;;2.00;0.95;;;;;;;13.47;82.25;98993.59;5049524;28;20598;-64
2023/10/29 05:21:00;;;;;;;2.13;1.20;;;;;;;13.46;83.06;98978.00;5053867;28;20028;-63
2023/10/29 05:23:27;;;;;;;2.85;1.10;;;;;;;13.44;82.86;98963.59;5050175;28;20021;-64
2023/10/29 05:25:52;;;;;;;4.68;1.15;;;;;;;13.42;83.02;98976.19;5043794;28;20049;-64
2023/10/29 05:28:17;;;;;;;2.67;0.88;;;;;;;13.40;83.66;98993.25;5041851;28;20030;-63
2023/10/29 05:30:43;;;;;;;2.95;1.42;;;;;;;13.39;83.43;98979.59;5046809;28;20071;-64
2023/10/29 05:33:08;;;;;;;4.40;1.10;;;;;;;13.38;83.35;98980.75;5048202;28;20073;-63
2023/10/29 05:35:33;;;;;;;6.13;1.13;;;;;;;13.34;82.22;98968.59;5031713;28;20476;-63
2023/10/29 05:37:59;;;;;;;2.22;0.70;;;;;;;13.32;82.34;98977.25;5039622;28;20285;-63
2023/10/29 05:40:24;;;;;;;2.13;0.70;;;;;;;13.31;82.17;98974.78;5060854;28;20033;-63
2023/10/29 05:42:50;;;;;;;2.80;0.80;;;;;;;13.28;82.15;98987.38;5042342;28;20532;-63
2023/10/29 05:45:15;;;;;;;2.60;0.80;;;;;;;13.29;81.90;98996.59;5054212;28;20029;-63
2023/10/29 05:47:40;;;;;;;2.40;0.85;;;;;;;13.23;82.05;99002.28;5050240;28;20127;-63
2023/10/29 05:50:07;;;;;;;2.70;0.90;;;;;;;13.21;82.09;98998.16;5044734;28;20044;-63
2023/10/29 05:52:33;;;;;;;3.72;0.80;;;;;;;13.20;81.72;99005.69;5030676;28;20036;-63
2023/10/29 05:55:01;;;;;;;3.63;0.95;;;;;;;13.20;81.75;99021.53;5042609;28;20078;-63
2023/10/29 05:57:26;;;;;;;3.20;0.75;;;;;;;13.17;81.29;99028.59;5045669;28;20028;-63
2023/10/29 05:59:51;;;;;;;2.60;0.90;;;;;;;13.16;81.82;99040.03;5043408;28;20082;-63
2023/10/29 06:02:17;;;;;;;4.35;1.00;;;;;;;13.14;82.06;99039.53;5035145;28;20032;-63
2023/10/29 06:04:43;;;;;;;2.88;0.90;;;;;;;13.14;81.93;99042.31;5051360;28;20060;-63
2023/10/29 06:07:08;;;;;;;3.85;1.05;;;;;;;13.11;82.07;99054.09;5049070;28;20384;-63
2023/10/29 06:09:33;;;;;;;2.50;0.90;;;;;;;13.11;82.02;99054.91;5040763;28;20031;-63
2023/10/29 06:11:59;;;;;;;2.92;1.13;;;;;;;13.10;82.42;99052.44;5049262;28;20032;-63
2023/10/29 06:14:24;;;;;;;5.57;1.23;;;;;;;13.08;82.13;99061.09;5067006;28;20533;-63
2023/10/29 06:16:56;;;;;;;6.63;1.13;;;;;;;13.11;81.93;99077.19;5035410;28;20033;-63
2023/10/29 06:19:24;;;;;;;7.05;1.33;;;;;;;13.10;81.79;99078.34;5041633;28;20030;-63
2023/10/29 06:21:49;;;;;;;9.05;1.63;;;;;;;13.11;82.15;99076.38;5059444;28;20035;-63
2023/10/29 06:24:15;;;;;;;7.20;1.60;;;;;;;13.08;81.29;99080.59;5049339;28;20036;-63
2023/10/29 06:26:40;;;;;;;4.50;1.30;;;;;;;13.09;81.21;99078.66;5046650;28;20034;-63
2023/10/29 06:29:06;;;;;;;7.03;1.40;;;;;;;13.07;81.37;99083.69;5039265;28;20029;-63
2023/10/29 06:31:33;;;;;;;5.55;1.35;;;;;;;13.03;81.11;99092.69;5050279;28;20031;-63
2023/10/29 06:33:59;;;;;;;5.45;1.45;;;;;;;13.00;81.32;99093.28;5069780;28;20101;-63
2023/10/29 06:36:24;;;;;;;5.38;1.33;;;;;;;13.03;81.32;99083.50;5043718;28;20373;-63
2023/10/29 06:38:50;;;;;;;5.25;1.30;;;;;;;13.01;80.51;99086.63;5062509;28;20045;-63
2023/10/29 06:41:15;;;;;;;7.28;1.20;;;;;;;13.06;80.19;99093.22;5040469;28;20071;-63
2023/10/29 06:43:43;;;;;;;6.30;1.48;;;;;;;13.07;80.61;99097.63;5043171;28;20029;-63
2023/10/29 06:46:09;;;;;;;8.52;1.60;;;;;;;13.03;79.76;99098.25;5039044;28;20353;-63
2023/10/29 06:48:36;;;;;;;5.88;1.30;;;;;;;13.02;79.92;99110.53;5040645;28;20089;-63
2023/10/29 06:51:10;;;;;;;7.75;1.52;;;;;;;13.02;79.92;99121.69;5047880;28;20143;-63
2023/10/29 06:53:35;;;;;;;6.30;1.50;;;;;;;13.05;79.92;99117.44;5042200;28;20037;-63
2023/10/29 06:56:02;;;;;;;5.20;1.40;;;;;;;13.05;79.78;99122.16;5039004;28;20582;-64
2023/10/29 06:58:27;;;;;;;8.07;1.73;;;;;;;13.03;79.23;99119.72;5048044;28;20032;-64
2023/10/29 07:00:53;;;;;;;8.88;1.58;;;;;;;13.06;79.93;99127.44;5048184;28;20404;-63
2023/10/29 07:03:18;;;;;;;5.88;1.45;;;;;;;13.02;79.24;99138.38;5037594;28;20350;-64
2023/10/29 07:05:44;;;;;;;8.50;1.67;;;;;;;13.04;79.25;99140.84;5033502;28;20379;-63
2023/10/29 07:08:09;;;;;;;7.55;1.63;;;;;;;13.02;79.10;99140.34;5034099;28;20043;-64
2023/10/29 07:10:36;;;;;;;8.50;1.35;;;;;;;13.01;79.16;99147.06;5050425;28;20032;-63
2023/10/29 07:13:01;;;;;;;6.53;1.52;;;;;;;13.02;78.86;99160.66;5063547;28;20040;-63
2023/10/29 07:15:27;;;;;;;7.45;1.42;;;;;;;13.01;78.93;99164.59;5045013;28;20977;-63
2023/10/29 07:17:52;;;;;;;4.90;1.30;;;;;;;13.15;80.74;99150.63;5051346;28;20036;-64
2023/10/29 07:20:17;;;;;;;7.80;1.73;;;;;;;13.10;78.83;99161.91;5037177;28;20017;-63
2023/10/29 07:22:43;;;;;;;10.80;1.80;;;;;;;13.10;78.65;99158.28;5051055;28;20048;-63
2023/10/29 07:25:08;;;;;;;8.02;1.88;;;;;;;13.10;78.27;99155.50;5037991;28;20044;-63
2023/10/29 07:27:33;;;;;;;6.40;1.77;;;;;;;13.10;77.85;99161.06;5043654;28;20028;-63
2023/10/29 07:29:59;;;;;;;6.50;1.55;;;;;;;13.08;77.98;99178.09;5052933;28;20040;-64
2023/10/29 07:32:24;;;;;;;6.13;1.40;;;;;;;13.09;78.39;99181.72;5050585;28;20521;-63
2023/10/29 07:34:49;;;;;;;7.40;1.60;;;;;;;13.13;78.49;99202.25;5051472;28;20040;-63
2023/10/29 07:37:15;;;;;;;11.50;1.63;;;;;;;13.12;78.06;99195.81;5041830;28;20814;-63
2023/10/29 07:39:40;;;;;;;8.43;1.60;;;;;;;13.13;77.22;99199.47;5048521;28;20068;-64
2023/10/29 07:42:05;;;;;;;8.55;1.90;;;;;;;13.12;76.86;99200.56;5043160;28;20036;-63
2023/10/29 07:44:31;;;;;;;6.43;1.40;;;;;;;13.14;76.94;99198.31;5049719;28;20040;-63
2023/10/29 07:46:58;;;;;;;9.48;2.28;;;;;;;13.15;76.81;99208.31;5046597;28;20032;-63
2023/10/29 07:49:24;;;;;;;11.15;2.00;;;;;;;13.13;76.32;99210.59;5047879;28;20472;-63
2023/10/29 07:51:49;;;;;;;9.65;1.88;;;;;;;13.11;75.72;99215.66;5043065;28;20055;-63
2023/10/29 07:54:15;;;;;;;5.53;1.60;;;;;;;13.14;76.62;99215.84;5051196;28;20063;-63
2023/10/29 07:56:41;;;;;;;9.07;1.73;;;;;;;13.16;76.37;99221.09;5049792;28;20029;-64
2023/10/29 07:59:06;;;;;;;6.97;1.65;;;;;;;13.19;74.81;99220.50;5063066;28;20022;-64
2023/10/29 08:01:31;;;;;;;6.85;1.73;;;;;;;13.17;74.17;99214.41;5044587;28;20403;-64
2023/10/29 08:03:57;;;;;;;9.50;2.05;;;;;;;13.21;75.36;99205.13;5049952;28;20144;-64
2023/10/29 08:06:22;;;;;;;7.63;1.92;;;;;;;13.26;74.86;99215.38;5042943;28;20091;-64
2023/10/29 08:08:48;;;;;;;7.35;1.67;;;;;;;13.30;74.88;99213.59;5044856;28;20059;-63
2023/10/29 08:11:18;;;;;;;9.32;2.20;;;;;;;13.33;74.63;99223.31;5053942;28;20065;-63
2023/10/29 08:13:44;;;;;;;11.35;2.03;;;;;;;13.32;74.15;99227.22;5046773;28;20060;-62
2023/10/29 08:16:09;;;;;;;8.65;1.88;;;;;;;13.32;73.68;99230.81;5045699;28;20068;-61
2023/10/29 08:18:34;;;;;;;7.25;1.83;;;;;;;13.37;73.71;99239.09;5045193;28;20040;-63
2023/10/29 08:21:00;;;;;;;11.40;2.05;;;;;;;13.38;72.94;99242.69;5049018;28;20063;-64
2023/10/29 08:23:26;;;;;;;11.02;1.85;;;;;;;13.40;73.58;99251.56;5049121;28;20025;-64
2023/10/29 08:25:52;;;;;;;8.38;1.50;;;;;;;13.43;73.62;99257.34;5036824;28;20051;-65
2023/10/29 08:28:19;;;;;;;10.15;2.13;;;;;;;13.44;73.13;99258.16;5046708;28;20136;-63
2023/10/29 08:30:47;;;;;;;9.40;1.70;;;;;;;13.44;73.34;99259.03;5045179;28;20144;-63
2023/10/29 08:33:12;;;;;;;10.25;2.30;;;;;;;13.47;73.25;99252.78;5044473;28;20029;-63
2023/10/29 08:35:38;;;;;;;8.88;2.00;;;;;;;13.48;72.14;99256.44;5045968;28;20040;-63
2023/10/29 08:38:03;;;;;;;6.90;1.80;;;;;;;13.58;73.87;99249.81;5038197;28;20037;-62
2023/10/29 08:40:28;;;;;;;9.00;1.58;;;;;;;13.62;72.31;99264.75;5040927;28;20359;-63
2023/10/29 08:42:54;;;;;;;5.07;1.52;;;;;;;13.74;73.09;99254.72;5045712;28;20033;-64
2023/10/29 08:45:20;;;;;;;5.38;1.50;;;;;;;13.82;71.40;99263.47;5050700;28;20486;-63
2023/10/29 08:47:45;;;;;;;7.65;2.03;;;;;;;13.84;70.18;99267.63;5053671;28;20036;-63
2023/10/29 08:50:10;;;;;;;6.53;1.67;;;;;;;13.88;70.75;99277.00;5042756;28;20519;-63
2023/10/29 08:52:36;;;;;;;6.75;1.52;;;;;;;13.92;69.80;99285.56;5040687;28;20486;-64
2023/10/29 08:55:01;;;;;;;8.05;1.80;;;;;;;13.94;70.22;99300.84;5041390;28;20034;-64
2023/10/29 08:57:27;;;;;;;9.43;1.63;;;;;;;13.97;70.53;99303.00;5046969;28;20108;-63
2023/10/29 08:59:55;;;;;;;6.47;1.83;;;;;;;14.01;70.27;99308.78;5051017;28;20067;-65
2023/10/29 09:02:20;;;;;;;9.85;1.77;;;;;;;14.00;68.96;99316.34;5063176;28;20433;-66
2023/10/29 09:04:47;;;;;;;9.23;2.00;;;;;;;14.02;69.18;99318.81;5052422;28;20033;-66
2023/10/29 09:07:12;;;;;;;7.03;1.63;;;;;;;14.04;68.30;99329.66;5043682;28;20025;-65
2023/10/29 09:09:37;;;;;;;6.28;1.80;;;;;;;14.04;68.30;99341.66;5050390;28;20032;-64
2023/10/29 09:12:03;;;;;;;10.05;1.80;;;;;;;14.08;68.15;99330.69;5047639;28;20088;-64
2023/10/29 09:14:29;;;;;;;6.93;1.60;;;;;;;14.11;68.34;99327.25;5038662;28;20029;-65
2023/10/29 09:16:54;;;;;;;10.35;2.00;;;;;;;14.07;66.88;99332.66;5050594;28;20104;-63
2023/10/29 09:19:20;;;;;;;7.75;1.70;;;;;;;14.04;67.84;99343.63;5051000;28;20037;-63
2023/10/29 09:21:46;;;;;;;7.70;1.75;;;;;;;14.02;67.46;99351.47;5056854;28;20097;-66
2023/10/29 09:24:11;;;;;;;7.43;1.63;;;;;;;13.99;66.70;99348.16;5045061;28;20131;-65
2023/10/29 09:26:36;;;;;;;9.02;1.70;;;;;;;14.06;67.71;99344.94;5036180;28;20054;-64
2023/10/29 09:29:02;;;;;;;6.93;1.77;;;;;;;14.18;68.21;99336.03;5054608;28;20096;-65
2023/10/29 09:31:28;;;;;;;9.50;1.80;;;;;;;14.34;67.78;99340.09;5038517;28;20025;-66
2023/10/29 09:33:54;;;;;;;6.30;1.60;;;;;;;14.51;66.60;99345.06;5043350;28;20033;-66
2023/10/29 09:36:20;;;;;;;6.63;1.70;;;;;;;14.59;66.71;99337.91;5053325;28;20077;-65
2023/10/29 09:38:46;;;;;;;8.30;2.05;;;;;;;14.69;66.07;99332.84;5053991;28;20029;-65
2023/10/29 09:41:15;;;;;;;9.85;1.90;;;;;;;14.70;66.04;99339.28;5051519;28;20039;-67
2023/10/29 09:43:41;;;;;;;7.55;1.83;;;;;;;14.70;66.79;99358.84;5053617;28;20617;-65
2023/10/29 09:46:07;;;;;;;8.82;2.15;;;;;;;14.72;66.61;99337.00;5051038;28;20026;-65
2023/10/29 09:48:36;;;;;;;5.97;1.50;;;;;;;14.72;65.69;99348.16;5044725;28;20050;-65
2023/10/29 09:51:06;;;;;;;8.32;1.80;;;;;;;14.74;63.76;99357.06;5041086;28;20106;-67
2023/10/29 09:53:37;;;;;;;8.70;1.80;;;;;;;14.78;64.31;99340.50;5057539;28;20049;-67
2023/10/29 09:56:07;;;;;;;8.98;1.88;;;;;;;14.77;64.04;99356.41;5045010;28;20029;-66
2023/10/29 09:58:34;;;;;;;7.93;1.58;;;;;;;14.81;64.23;99348.22;5050313;28;20519;-66
2023/10/29 10:01:01;;;;;;;8.55;1.90;;;;;;;14.76;63.53;99334.41;5048879;28;20388;-67
2023/10/29 10:03:27;;;;;;;9.48;2.25;;;;;;;14.68;64.00;99333.19;5045539;28;20108;-66
2023/10/29 10:05:52;;;;;;;7.10;1.75;;;;;;;14.65;64.20;99322.66;5060511;28;20415;-67
2023/10/29 10:08:28;;;;;;;8.75;1.85;;;;;;;14.61;65.53;99319.66;5045716;28;20024;-67
2023/10/29 10:10:55;;;;;;;5.22;1.67;;;;;;;14.58;64.50;99330.63;5050309;28;20099;-66
2023/10/29 10:13:38;;;;;;;9.02;1.85;;;;;;;14.53;65.70;99333.56;5060578;28;20028;-66
2023/10/29 10:16:09;;;;;;;8.25;1.77;;;;;;;14.48;64.52;99326.94;5038889;28;20077;-65
2023/10/29 10:18:54;;;;;;;7.57;1.50;;;;;;;14.45;65.71;99319.19;5062426;28;20376;-64
2023/10/29 10:21:24;;;;;;;14.32;2.08;;;;;;;14.37;65.32;99314.34;5059677;28;20053;-66
2023/10/29 10:23:56;;;;;;;8.48;2.28;;;;;;;14.47;68.06;99319.72;5050507;28;20043;-66
2023/10/29 10:26:34;;;;;;;9.07;2.00;;;;;;;14.66;70.85;99304.78;5043580;28;20127;-66
2023/10/29 10:29:00;;;;;;;13.10;2.35;;;;;;;14.95;77.13;99313.50;5040151;28;20032;-66
2023/10/29 10:31:27;;;;;;;15.30;7.43;;;;;;;14.95;70.84;99316.28;5055228;28;20032;-65
2023/10/29 10:34:14;;;;;;;12.15;3.75;;;;;;;14.94;68.30;99322.19;5051544;28;20025;-66
2023/10/29 10:36:40;;;;;;;8.07;2.03;;;;;;;14.88;66.76;99315.91;5047463;28;20143;-66
2023/10/29 10:39:06;;;;;;;5.45;1.63;;;;;;;14.96;66.28;99320.72;5044261;28;20017;-66
2023/10/29 10:41:45;;;;;;;8.90;2.25;;;;;;;15.05;65.96;99334.75;5055697;28;20113;-66
2023/10/29 10:44:18;;;;;;;7.50;1.80;;;;;;;15.02;65.22;99340.16;5044879;28;20028;-66
2023/10/29 10:46:56;;;;;;;7.88;1.90;;;;;;;15.04;65.98;99363.00;5046272;28;20481;-65
2023/10/29 10:49:23;;;;;;;8.13;2.05;;;;;;;15.03;65.09;99362.19;5060217;28;20029;-67
2023/10/29 10:51:54;;;;;;;9.45;2.25;;;;;;;15.01;65.55;99361.66;5048657;28;20037;-66
2023/10/29 10:54:21;;;;;;;7.15;2.17;;;;;;;14.96;64.89;99359.84;5053057;28;20505;-66
2023/10/29 10:56:48;;;;;;;9.88;1.73;;;;;;;14.91;64.72;99354.38;5048927;28;20024;-66
2023/10/29 10:59:13;;;;;;;7.10;2.13;;;;;;;14.86;65.14;99353.69;5060209;28;20518;-67
2023/10/29 11:01:39;;;;;;;11.65;1.92;;;;;;;14.80;65.37;99339.03;5060276;28;20036;-67
2023/10/29 11:04:07;;;;;;;7.45;1.90;;;;;;;14.76;65.71;99343.59;5047747;28;20552;-67
2023/10/29 11:06:36;;;;;;;9.25;2.15;;;;;;;14.71;65.21;99349.31;5051831;28;20041;-66
2023/10/29 11:09:02;;;;;;;10.75;1.90;;;;;;;14.65;65.77;99345.00;5044479;28;20029;-66
2023/10/29 11:11:37;;;;;;;8.48;1.92;;;;;;;14.59;65.79;99358.25;5041524;28;20034;-65
2023/10/29 11:14:14;;;;;;;8.10;1.95;;;;;;;14.55;66.07;99346.06;5047731;28;20033;-66
2023/10/29 11:16:57;;;;;;;7.07;1.48;;;;;;;14.54;67.15;99335.22;5049852;28;20064;-66
2023/10/29 11:19:47;;;;;;;7.15;1.88;;;;;;;14.51;66.25;99327.50;5053126;28;20120;-65
2023/10/29 11:22:29;;;;;;;9.30;2.00;;;;;;;14.45;66.27;99321.16;5053468;28;20045;-66
2023/10/29 11:25:09;;;;;;;7.40;1.92;;;;;;;14.38;66.94;99318.81;5044435;28;20100;-61
2023/10/29 11:27:41;;;;;;;6.90;1.58;;;;;;;14.34;66.27;99303.00;5050509;28;20045;-66
2023/10/29 11:30:22;;;;;;;8.73;2.15;;;;;;;14.31;66.71;99287.72;5044311;28;20568;-63